createdAt,value
2018-04-16T19:53:53.466Z,95083.57
2018-04-16T19:56:27.280Z,95075.41
2018-04-16T19:58:56.383Z,95075.26
2018-04-16T20:01:24.774Z,95068.67
2018-04-16T20:03:58.438Z,95063.03
2018-04-16T20:06:26.791Z,95074.69
2018-04-16T20:08:55.182Z,95081.78
2018-04-16T20:11:33.567Z,95080.36
2018-04-16T20:14:01.741Z,95076.36
2018-04-16T20:16:30.107Z,95072.52
2018-04-16T20:18:59.237Z,95077.24
2018-04-16T20:21:32.200Z,95079.78
2018-04-16T20:24:01.516Z,95085.85
2018-04-16T20:26:29.942Z,95080.89
2018-04-16T20:28:58.299Z,95079.37
2018-04-16T20:31:26.697Z,95074.91
2018-04-16T20:33:55.064Z,95074.58
2018-04-16T20:36:23.515Z,95077.31
2018-04-16T20:38:51.875Z,95077.06
2018-04-16T20:41:21.191Z,95068.05
2018-04-16T20:43:49.580Z,95070.19
2018-04-16T20:46:17.942Z,95077.41
2018-04-16T20:48:46.315Z,95074.57
2018-04-16T20:51:14.663Z,95071.94
2018-04-16T20:53:43.042Z,95077.20
2018-04-16T20:56:11.400Z,95076.09
2018-04-16T20:58:39.772Z,95074.57
2018-04-16T21:01:08.129Z,95076.60
2018-04-16T21:03:36.490Z,95075.89
2018-04-16T21:06:04.845Z,95075.38
2018-04-16T21:08:33.208Z,95074.17
2018-04-16T21:11:01.576Z,95074.88
2018-04-16T21:13:29.931Z,95078.66
2018-04-16T21:15:58.276Z,95076.34
2018-04-16T21:18:26.629Z,95081.50
2018-04-16T21:20:55.077Z,95075.63
2018-04-16T21:23:23.492Z,95067.36
2018-04-16T21:25:51.853Z,95072.11
2018-04-16T21:28:20.211Z,95072.72
2018-04-16T21:30:48.572Z,95072.79
2018-04-16T21:33:16.927Z,95071.17
2018-04-16T21:35:45.283Z,95069.58
2018-04-16T21:38:13.688Z,95075.56
2018-04-16T21:40:42.060Z,95070.90
2018-04-16T21:43:10.210Z,95075.59
2018-04-16T21:45:38.567Z,95075.66
2018-04-16T21:48:06.916Z,95083.75
2018-04-16T21:50:35.279Z,95077.37
2018-04-16T21:53:03.395Z,95076.06
2018-04-16T21:55:31.970Z,95070.70
2018-04-16T21:58:00.371Z,95073.12
2018-04-16T22:00:28.734Z,95069.38
2018-04-16T22:02:57.140Z,95061.08
2018-04-16T22:05:25.486Z,95060.70
2018-04-16T22:07:53.836Z,95070.02
2018-04-16T22:10:22.211Z,95068.87
2018-04-16T22:12:50.746Z,95065.45
2018-04-16T22:15:19.095Z,95056.97
2018-04-16T22:17:48.236Z,95049.90
2018-04-16T22:20:16.598Z,95054.14
2018-04-16T22:22:44.963Z,95055.97
2018-04-16T22:25:13.104Z,95054.75
2018-04-16T22:27:41.467Z,95047.97
2018-04-16T22:30:09.623Z,95046.47
2018-04-16T22:32:37.971Z,95041.80
2018-04-16T22:35:06.348Z,95040.49
2018-04-16T22:37:34.718Z,95045.03
2018-04-16T22:40:03.186Z,95042.98
2018-04-16T22:42:31.530Z,95038.96
2018-04-16T22:44:59.897Z,95030.47
2018-04-16T22:47:28.250Z,95030.06
2018-04-16T22:49:56.621Z,95029.84
2018-04-16T22:52:24.963Z,95029.16
2018-04-16T22:54:53.094Z,95036.64
2018-04-16T22:57:21.492Z,95033.88
2018-04-16T22:59:49.916Z,95031.98
2018-04-16T23:02:18.272Z,95032.88
2018-04-16T23:04:46.623Z,95029.74
2018-04-16T23:07:14.989Z,95028.60
2018-04-16T23:09:43.365Z,95028.60
2018-04-16T23:12:11.768Z,95026.41
2018-04-16T23:14:40.120Z,95027.44
2018-04-16T23:17:08.540Z,95027.33
2018-04-16T23:19:36.894Z,95021.16
2018-04-16T23:22:05.257Z,95019.14
2018-04-16T23:24:33.628Z,95017.83
2018-04-16T23:27:01.996Z,95026.63
2018-04-16T23:29:30.360Z,95016.92
2018-04-16T23:31:58.714Z,95008.70
2018-04-16T23:34:27.113Z,95011.03
2018-04-16T23:36:55.478Z,95000.91
2018-04-16T23:39:23.837Z,95004.36
2018-04-16T23:41:52.238Z,94998.19
2018-04-16T23:44:20.596Z,95006.25
2018-04-16T23:46:49.000Z,95009.18
2018-04-16T23:49:17.374Z,95008.06
2018-04-16T23:51:45.812Z,95009.11
2018-04-16T23:54:14.189Z,95014.06
2018-04-16T23:56:42.591Z,95016.97
2018-04-16T23:59:10.945Z,95012.80
